Time;durP1;ratioP1;P1;durP2;ratioP2;P2;SDS_P1;SDS_P2;PMS_P1;PMS_P2;Temp;Humidity;BMP_temperature;BMP_pressure;BME280_temperature;BME280_humidity;BME280_pressure;Samples;Min_cycle;Max_cycle;Signal;HPM_P1;HPM_P2
2022/03/31 00:02:38;;;;;;;7.32;2.40;;;15.70;53.90;;;;;;5995335;29;20475;-67
2022/03/31 00:05:40;;;;;;;9.75;1.70;;;15.70;53.90;;;;;;6010948;29;20049;-67
2022/03/31 00:08:40;;;;;;;6.20;1.85;;;15.70;53.90;;;;;;6011716;29;20050;-68
2022/03/31 00:11:41;;;;;;;10.18;1.98;;;15.70;54.00;;;;;;5995490;29;20349;-68
2022/03/31 00:14:42;;;;;;;9.65;2.05;;;15.70;54.10;;;;;;6034128;29;22056;-68
2022/03/31 00:17:43;;;;;;;7.43;1.90;;;15.70;54.10;;;;;;5996715;29;20119;-69
2022/03/31 00:20:44;;;;;;;6.57;1.77;;;15.60;54.10;;;;;;6001924;29;20128;-68
2022/03/31 00:23:45;;;;;;;4.57;1.80;;;15.60;54.60;;;;;;6034065;29;20042;-68
2022/03/31 00:26:46;;;;;;;9.82;2.55;;;15.60;54.10;;;;;;5996267;29;20060;-68
2022/03/31 00:29:47;;;;;;;8.25;1.70;;;15.60;54.20;;;;;;6033761;29;20038;-67
2022/03/31 00:32:48;;;;;;;8.52;1.98;;;15.60;54.30;;;;;;6000009;29;20053;-67
2022/03/31 00:35:49;;;;;;;6.05;1.85;;;15.60;54.50;;;;;;6002148;29;20085;-67
2022/03/31 00:42:10;;;;;;;9.07;2.10;;;15.50;54.80;;;;;;6008828;29;20053;-67
2022/03/31 00:45:13;;;;;;;13.68;2.25;;;15.50;54.80;;;;;;5994135;29;20160;-67
2022/03/31 00:48:15;;;;;;;7.35;1.80;;;15.50;54.90;;;;;;6004723;29;20080;-67
2022/03/31 00:51:16;;;;;;;8.80;2.67;;;15.50;54.90;;;;;;6025647;29;20086;-67
2022/03/31 00:54:19;;;;;;;8.65;1.95;;;15.60;54.90;;;;;;6011315;29;20469;-67
2022/03/31 00:57:20;;;;;;;5.15;1.77;;;15.50;54.80;;;;;;5997521;29;20471;-67
2022/03/31 01:00:22;;;;;;;10.73;1.77;;;15.50;54.70;;;;;;5991995;29;20041;-67
2022/03/31 01:03:23;;;;;;;4.38;1.35;;;15.60;54.70;;;;;;5997206;29;20036;-67
2022/03/31 01:06:24;;;;;;;4.60;1.42;;;15.60;54.40;;;;;;6000749;29;20379;-67
2022/03/31 01:09:25;;;;;;;10.10;1.80;;;15.60;54.20;;;;;;6029667;29;20042;-67
2022/03/31 01:12:26;;;;;;;7.28;1.63;;;15.60;54.10;;;;;;6010814;29;20042;-67
2022/03/31 01:15:27;;;;;;;10.10;2.03;;;15.60;54.10;;;;;;5994755;29;20122;-67
2022/03/31 01:18:28;;;;;;;11.55;1.98;;;15.50;54.00;;;;;;6003755;29;20037;-67
2022/03/31 01:21:29;;;;;;;8.07;1.50;;;15.50;53.90;;;;;;5980707;29;20098;-67
2022/03/31 01:24:30;;;;;;;6.85;2.00;;;15.40;53.80;;;;;;5989947;29;20467;-67
2022/03/31 01:27:35;;;;;;;9.32;1.50;;;15.50;53.80;;;;;;6032737;29;20042;-67
2022/03/31 01:30:36;;;;;;;4.95;1.50;;;15.40;53.80;;;;;;5995321;29;20098;-67
2022/03/31 01:33:37;;;;;;;5.00;1.92;;;15.40;53.60;;;;;;6004300;29;20033;-67
2022/03/31 01:36:39;;;;;;;7.20;2.33;;;15.40;53.50;;;;;;6032246;29;20474;-67
2022/03/31 01:39:41;;;;;;;17.33;2.50;;;15.40;53.40;;;;;;5994315;29;20094;-67
2022/03/31 01:42:43;;;;;;;12.80;1.55;;;15.40;53.40;;;;;;6010704;29;20057;-67
2022/03/31 01:45:44;;;;;;;12.45;2.22;;;15.40;53.40;;;;;;6010517;29;20088;-67
2022/03/31 01:48:45;;;;;;;6.65;1.85;;;15.40;53.40;;;;;;5994413;29;20414;-67
2022/03/31 01:51:46;;;;;;;8.85;2.47;;;15.40;53.30;;;;;;6000976;29;20129;-67
2022/03/31 01:54:46;;;;;;;11.63;1.80;;;15.40;53.20;;;;;;5997564;29;20034;-67
2022/03/31 01:57:47;;;;;;;4.40;1.60;;;15.40;53.10;;;;;;5978852;29;20125;-68
2022/03/31 02:00:50;;;;;;;10.38;2.42;;;15.50;52.90;;;;;;6025850;29;20038;-67
2022/03/31 02:03:51;;;;;;;10.45;2.33;;;15.50;52.60;;;;;;5996159;29;20030;-68
2022/03/31 02:06:52;;;;;;;5.70;1.65;;;15.40;52.30;;;;;;6000990;29;20124;-67
2022/03/31 02:09:53;;;;;;;8.70;1.90;;;15.40;52.10;;;;;;5977979;29;20046;-67
2022/03/31 02:12:54;;;;;;;7.53;2.20;;;15.30;51.90;;;;;;5993505;29;20097;-67
2022/03/31 02:15:55;;;;;;;24.40;2.03;;;15.30;51.90;;;;;;5984745;29;20050;-67
2022/03/31 02:18:56;;;;;;;10.20;1.77;;;15.40;51.80;;;;;;5994573;29;20076;-67
2022/03/31 02:21:57;;;;;;;10.02;1.60;;;15.30;51.40;;;;;;5993612;29;20125;-67
2022/03/31 02:24:58;;;;;;;7.68;1.45;;;15.40;51.20;;;;;;6006599;29;20124;-67
2022/03/31 02:27:58;;;;;;;13.88;1.80;;;15.40;51.20;;;;;;5995014;29;20042;-67
2022/03/31 02:30:59;;;;;;;10.75;2.00;;;15.40;51.10;;;;;;6032351;29;20631;-67
2022/03/31 02:34:00;;;;;;;7.47;1.67;;;15.40;51.00;;;;;;5994705;29;20041;-67
2022/03/31 02:37:02;;;;;;;13.50;2.33;;;15.50;50.80;;;;;;6014686;29;20033;-68
2022/03/31 02:40:05;;;;;;;5.75;1.40;;;15.50;50.50;;;;;;6017520;29;20033;-68
2022/03/31 02:43:05;;;;;;;6.97;1.85;;;15.50;50.40;;;;;;6018007;29;20571;-67
2022/03/31 02:46:07;;;;;;;6.80;1.27;;;15.50;50.30;;;;;;6005692;29;20045;-68
2022/03/31 02:49:09;;;;;;;13.85;1.75;;;15.50;50.30;;;;;;6001444;29;20042;-65
2022/03/31 02:52:10;;;;;;;15.85;2.40;;;15.50;50.10;;;;;;6016620;29;20419;-66
2022/03/31 02:55:28;;;;;;;4.85;1.88;;;15.50;49.90;;;;;;6021880;29;20098;-66
2022/03/31 02:58:29;;;;;;;11.40;1.65;;;15.50;49.80;;;;;;6002385;29;20038;-66
2022/03/31 03:01:30;;;;;;;9.60;1.65;;;15.60;49.70;;;;;;6019068;29;20030;-67
2022/03/31 03:04:31;;;;;;;8.55;1.83;;;15.60;49.50;;;;;;6001166;29;20038;-67
2022/03/31 03:07:32;;;;;;;12.07;1.55;;;15.60;49.20;;;;;;6023065;29;20060;-66
2022/03/31 03:10:32;;;;;;;5.65;1.90;;;15.60;49.00;;;;;;6024324;29;20110;-67
2022/03/31 03:13:35;;;;;;;6.93;1.52;;;15.60;48.80;;;;;;6019678;29;20045;-66
2022/03/31 03:16:36;;;;;;;10.25;2.03;;;15.70;48.70;;;;;;6005018;29;20081;-66
2022/03/31 03:19:37;;;;;;;16.77;2.15;;;15.70;48.50;;;;;;6023441;29;20410;-67
2022/03/31 03:22:38;;;;;;;12.90;2.38;;;15.70;48.40;;;;;;6005925;29;20052;-66
2022/03/31 03:25:39;;;;;;;9.95;1.95;;;15.70;48.60;;;;;;6023625;29;20038;-66
2022/03/31 03:28:41;;;;;;;14.15;2.53;;;15.70;49.10;;;;;;6023001;29;20414;-67
2022/03/31 03:31:42;;;;;;;8.38;2.42;;;15.80;49.50;;;;;;6002904;29;20053;-67
2022/03/31 03:34:43;;;;;;;9.13;2.50;;;15.80;49.70;;;;;;6022316;29;20068;-67
2022/03/31 03:37:44;;;;;;;6.95;2.92;;;15.70;50.20;;;;;;6022941;29;20041;-67
2022/03/31 03:40:45;;;;;;;10.15;3.13;;;15.70;50.70;;;;;;6003132;29;20086;-67
2022/03/31 03:43:46;;;;;;;5.00;3.08;;;15.80;51.10;;;;;;6024139;29;20451;-67
2022/03/31 03:46:47;;;;;;;8.77;2.72;;;15.80;51.60;;;;;;6024392;29;20046;-66
2022/03/31 03:49:48;;;;;;;9.18;3.35;;;15.80;51.90;;;;;;6024596;29;20042;-66
2022/03/31 03:52:50;;;;;;;11.55;3.47;;;15.80;52.00;;;;;;6020173;29;20054;-67
2022/03/31 03:55:51;;;;;;;10.18;3.38;;;15.80;52.20;;;;;;6019094;29;20049;-67
2022/03/31 03:58:52;;;;;;;10.60;3.05;;;15.90;52.30;;;;;;6000973;29;20038;-66
2022/03/31 04:01:53;;;;;;;11.25;2.33;;;15.80;52.40;;;;;;6021184;29;20033;-67
2022/03/31 04:04:54;;;;;;;10.00;2.88;;;15.80;51.90;;;;;;6023221;29;20042;-67
2022/03/31 04:07:55;;;;;;;11.07;2.70;;;15.80;51.80;;;;;;6022213;29;20130;-67
2022/03/31 04:10:55;;;;;;;14.98;2.92;;;15.80;51.90;;;;;;6015628;29;20049;-67
2022/03/31 04:13:56;;;;;;;16.52;3.28;;;15.80;52.00;;;;;;6016887;29;20080;-66
2022/03/31 04:16:57;;;;;;;8.32;3.13;;;15.80;52.10;;;;;;6001141;29;20041;-66
2022/03/31 04:19:58;;;;;;;7.38;2.92;;;15.80;52.30;;;;;;6022073;29;20519;-66
2022/03/31 04:22:59;;;;;;;8.52;3.10;;;15.80;52.30;;;;;;6018312;29;20117;-66
2022/03/31 04:26:00;;;;;;;9.07;3.00;;;15.90;52.30;;;;;;6021776;29;20044;-67
2022/03/31 04:29:01;;;;;;;10.27;3.65;;;15.80;52.50;;;;;;6022605;29;20041;-66
2022/03/31 04:32:02;;;;;;;4.30;2.70;;;15.80;52.90;;;;;;6023578;29;20046;-66
2022/03/31 04:35:03;;;;;;;11.77;3.25;;;15.80;53.20;;;;;;6006688;29;20037;-66
2022/03/31 04:38:04;;;;;;;7.50;3.10;;;15.80;53.40;;;;;;6017835;29;20520;-67
2022/03/31 04:41:05;;;;;;;4.88;2.20;;;15.80;53.60;;;;;;6015465;29;20077;-67
2022/03/31 04:44:06;;;;;;;5.32;2.63;;;15.90;53.70;;;;;;6020120;29;20081;-67
2022/03/31 04:47:08;;;;;;;5.78;2.40;;;15.80;53.70;;;;;;6021066;29;20094;-67
2022/03/31 04:50:09;;;;;;;3.50;1.92;;;15.80;53.70;;;;;;6003449;29;20116;-67
2022/03/31 04:53:11;;;;;;;9.15;2.40;;;15.80;53.40;;;;;;6017792;29;20475;-66
2022/03/31 04:56:14;;;;;;;4.57;1.90;;;15.80;53.40;;;;;;6020424;29;20050;-66
2022/03/31 04:59:14;;;;;;;15.82;2.30;;;15.80;53.60;;;;;;5998243;29;20466;-66
2022/03/31 05:02:16;;;;;;;8.60;2.33;;;15.80;53.60;;;;;;6002363;29;20082;-66
2022/03/31 05:05:17;;;;;;;9.73;2.42;;;15.80;53.60;;;;;;6001764;29;20050;-66
2022/03/31 05:08:17;;;;;;;7.47;2.08;;;15.80;53.60;;;;;;5997444;29;20632;-67
2022/03/31 05:11:19;;;;;;;8.70;2.00;;;15.80;53.60;;;;;;6016716;29;20046;-65
2022/03/31 05:14:20;;;;;;;10.13;2.63;;;15.80;53.50;;;;;;6018447;29;20041;-66
2022/03/31 05:17:21;;;;;;;6.68;1.65;;;15.80;53.40;;;;;;6015436;29;20101;-67
2022/03/31 05:20:22;;;;;;;6.80;1.95;;;15.90;53.50;;;;;;6011781;29;20059;-66
2022/03/31 05:23:23;;;;;;;7.60;1.75;;;15.90;53.40;;;;;;5998298;29;20050;-66
2022/03/31 05:26:24;;;;;;;5.80;1.77;;;15.90;53.40;;;;;;6017253;29;20686;-67
2022/03/31 05:29:24;;;;;;;7.25;2.00;;;15.90;53.40;;;;;;6000703;29;20053;-66
2022/03/31 05:32:25;;;;;;;5.60;2.70;;;15.90;53.20;;;;;;6003967;29;20117;-68
2022/03/31 05:35:27;;;;;;;6.55;2.25;;;15.90;53.20;;;;;;6020888;29;20142;-66
2022/03/31 05:38:28;;;;;;;5.75;2.08;;;15.90;53.20;;;;;;6017636;29;20049;-66
2022/03/31 05:41:29;;;;;;;7.93;2.50;;;15.90;53.30;;;;;;6004507;29;20125;-68
2022/03/31 05:44:30;;;;;;;11.63;2.03;;;15.90;53.30;;;;;;6017911;29;20068;-68
2022/03/31 05:47:32;;;;;;;12.18;1.95;;;15.90;53.30;;;;;;6003889;29;20114;-66
2022/03/31 05:50:32;;;;;;;9.93;2.20;;;15.90;53.40;;;;;;6013321;29;20042;-66
2022/03/31 05:53:33;;;;;;;11.27;2.65;;;15.90;53.40;;;;;;5997805;29;20068;-66
2022/03/31 05:56:34;;;;;;;21.88;3.03;;;16.00;53.50;;;;;;6019096;29;20079;-65
2022/03/31 05:59:35;;;;;;;7.43;2.47;;;16.00;53.50;;;;;;5998872;29;20125;-67
2022/03/31 06:02:37;;;;;;;7.20;2.55;;;16.00;53.60;;;;;;6013699;29;20132;-66
2022/03/31 06:05:38;;;;;;;8.52;2.42;;;16.00;53.70;;;;;;6018814;29;20058;-66
2022/03/31 06:08:39;;;;;;;11.32;3.42;;;16.00;53.80;;;;;;6000261;29;20065;-65
2022/03/31 06:11:40;;;;;;;6.72;3.17;;;16.00;53.80;;;;;;6015285;29;20045;-67
2022/03/31 06:14:41;;;;;;;11.77;3.17;;;16.10;54.00;;;;;;6014551;29;20054;-68
2022/03/31 06:17:44;;;;;;;10.93;2.63;;;16.10;54.00;;;;;;6014728;29;20057;-67
2022/03/31 06:20:44;;;;;;;11.25;2.97;;;16.10;54.00;;;;;;6018220;29;20048;-67
2022/03/31 06:23:45;;;;;;;8.02;3.33;;;16.10;54.10;;;;;;5996036;29;20049;-67
2022/03/31 06:26:46;;;;;;;11.20;3.65;;;16.20;54.20;;;;;;6017878;29;20045;-68
2022/03/31 06:29:49;;;;;;;4.63;2.63;;;16.10;54.10;;;;;;6004132;29;20176;-67
2022/03/31 06:32:50;;;;;;;17.25;3.28;;;16.20;54.30;;;;;;6002242;29;20049;-67
2022/03/31 06:35:51;;;;;;;9.88;2.55;;;16.20;54.40;;;;;;6017960;29;20451;-67
2022/03/31 06:38:51;;;;;;;11.57;3.40;;;16.10;54.40;;;;;;6017211;29;20124;-67
2022/03/31 06:41:52;;;;;;;11.77;2.67;;;16.10;54.40;;;;;;5998054;29;20049;-66
2022/03/31 06:44:53;;;;;;;6.60;2.95;;;16.10;54.40;;;;;;6012961;29;20372;-67
2022/03/31 06:47:55;;;;;;;14.93;4.00;;;16.10;54.40;;;;;;6014711;29;20037;-67
2022/03/31 06:50:57;;;;;;;7.53;3.22;;;16.10;54.50;;;;;;6000002;29;20053;-69
2022/03/31 06:53:59;;;;;;;16.60;4.25;;;16.10;54.70;;;;;;5999171;29;20635;-67
2022/03/31 06:57:00;;;;;;;8.88;3.20;;;16.10;54.70;;;;;;6019348;29;20033;-68
2022/03/31 07:00:02;;;;;;;7.78;3.33;;;16.20;54.80;;;;;;6021579;29;20049;-68
2022/03/31 07:03:03;;;;;;;8.00;3.47;;;16.20;54.80;;;;;;6016956;29;20057;-68
2022/03/31 07:06:05;;;;;;;9.15;2.83;;;16.30;54.70;;;;;;6018148;29;20043;-68
2022/03/31 07:09:06;;;;;;;9.52;3.15;;;16.30;54.70;;;;;;6017873;29;20077;-67
2022/03/31 07:12:07;;;;;;;11.68;2.88;;;16.30;54.60;;;;;;5997211;29;20042;-70
2022/03/31 07:15:09;;;;;;;8.07;2.15;;;16.30;54.50;;;;;;5996885;29;20057;-68
2022/03/31 07:18:10;;;;;;;12.73;3.63;;;16.30;54.40;;;;;;6010277;29;20042;-71
2022/03/31 07:21:11;;;;;;;9.32;2.72;;;16.40;54.30;;;;;;6018455;29;20145;-66
2022/03/31 07:24:12;;;;;;;7.40;2.78;;;16.40;54.20;;;;;;6005426;29;20057;-67
2022/03/31 07:27:12;;;;;;;7.97;2.83;;;16.40;54.10;;;;;;6001067;29;20029;-67
2022/03/31 07:30:15;;;;;;;9.52;3.55;;;16.40;54.10;;;;;;6018357;29;20375;-68
2022/03/31 07:33:19;;;;;;;7.68;2.80;;;16.40;54.00;;;;;;5990525;29;20484;-66
2022/03/31 07:36:20;;;;;;;9.90;3.13;;;16.40;53.90;;;;;;6012489;29;20049;-67
2022/03/31 07:39:21;;;;;;;6.45;2.45;;;16.40;53.80;;;;;;6012953;29;20042;-66
2022/03/31 07:42:22;;;;;;;8.23;2.35;;;16.40;53.70;;;;;;6016914;29;20537;-67
2022/03/31 07:45:23;;;;;;;8.40;3.03;;;16.40;53.60;;;;;;5998161;29;20038;-67
2022/03/31 07:48:24;;;;;;;11.40;3.00;;;16.40;53.70;;;;;;6019513;29;20413;-72
2022/03/31 07:51:26;;;;;;;16.63;3.78;;;16.40;53.60;;;;;;5984287;29;20049;-68
2022/03/31 07:54:27;;;;;;;11.63;3.40;;;16.50;53.20;;;;;;6005022;29;20049;-67
2022/03/31 07:57:28;;;;;;;11.70;2.25;;;16.40;53.10;;;;;;6018108;29;20046;-70
2022/03/31 08:00:29;;;;;;;10.00;2.72;;;16.40;52.90;;;;;;6003895;29;20041;-67
2022/03/31 08:03:30;;;;;;;13.02;3.08;;;16.40;52.80;;;;;;6021591;29;20416;-68
2022/03/31 08:06:31;;;;;;;12.45;3.15;;;16.40;52.80;;;;;;5988846;29;20042;-67
2022/03/31 08:09:32;;;;;;;15.73;3.47;;;16.50;52.70;;;;;;6017053;29;20522;-68
2022/03/31 08:12:34;;;;;;;16.75;4.15;;;16.50;52.40;;;;;;6017992;29;20672;-67
2022/03/31 08:15:35;;;;;;;28.83;4.13;;;16.40;52.20;;;;;;6021728;29;20490;-66
2022/03/31 08:18:36;;;;;;;16.63;4.15;;;16.40;52.20;;;;;;6003039;29;20042;-67
2022/03/31 08:21:37;;;;;;;18.13;4.90;;;16.40;52.10;;;;;;6023652;29;20082;-66
2022/03/31 08:24:38;;;;;;;20.50;4.60;;;16.30;52.10;;;;;;6021028;29;20049;-66
2022/03/31 08:27:39;;;;;;;16.80;5.28;;;16.30;52.20;;;;;;6004193;29;20045;-67
2022/03/31 08:30:40;;;;;;;14.77;4.55;;;16.30;52.40;;;;;;6002805;29;20053;-67
2022/03/31 08:33:42;;;;;;;25.55;5.43;;;16.40;52.50;;;;;;6015883;29;20467;-66
2022/03/31 08:36:44;;;;;;;19.38;5.15;;;16.40;52.30;;;;;;6015671;29;20129;-68
2022/03/31 08:39:44;;;;;;;13.50;4.28;;;16.50;52.30;;;;;;6012696;29;20037;-68
2022/03/31 08:42:45;;;;;;;21.67;4.47;;;16.50;52.00;;;;;;5995001;29;20037;-68
2022/03/31 08:45:55;;;;;;;21.98;4.15;;;16.60;51.80;;;;;;6013749;29;20160;-67
2022/03/31 08:48:56;;;;;;;17.73;5.45;;;16.60;51.70;;;;;;5995896;29;20041;-68
2022/03/31 08:51:57;;;;;;;11.95;4.43;;;16.60;51.50;;;;;;6014136;29;20498;-68
2022/03/31 08:54:58;;;;;;;21.70;4.50;;;16.50;51.40;;;;;;6013617;29;20038;-68
2022/03/31 08:58:01;;;;;;;11.02;4.53;;;16.50;51.30;;;;;;5980179;29;20050;-68
2022/03/31 09:01:03;;;;;;;19.85;5.00;;;16.50;51.20;;;;;;6015903;29;20045;-68
2022/03/31 09:04:04;;;;;;;17.42;4.90;;;16.60;51.10;;;;;;6015443;29;20042;-68
2022/03/31 09:07:07;;;;;;;15.40;5.45;;;16.70;50.90;;;;;;5982132;29;20117;-68
2022/03/31 09:10:08;;;;;;;15.48;5.47;;;16.70;50.70;;;;;;5996681;29;20402;-68
2022/03/31 09:13:23;;;;;;;19.90;5.43;;;16.70;50.60;;;;;;6013579;29;20057;-67
2022/03/31 09:16:34;;;;;;;26.77;5.57;;;16.70;50.70;;;;;;6007199;29;20034;-68
2022/03/31 09:19:35;;;;;;;19.45;5.50;;;16.60;50.90;;;;;;6016544;29;20587;-67
2022/03/31 09:22:48;;;;;;;25.98;6.38;;;16.60;51.10;;;;;;5998550;29;20038;-68
2022/03/31 09:25:53;;;;;;;19.67;5.38;;;16.60;51.40;;;;;;6000433;29;20045;-68
2022/03/31 09:28:55;;;;;;;14.82;4.60;;;16.40;51.70;;;;;;6014576;29;21148;-68
2022/03/31 09:32:10;;;;;;;16.17;4.35;;;16.20;52.10;;;;;;6014062;29;20041;-67
2022/03/31 09:35:16;;;;;;;10.68;4.03;;;15.90;53.20;;;;;;6016998;29;20117;-67
2022/03/31 09:38:17;;;;;;;10.55;4.15;;;15.80;54.00;;;;;;6011311;29;20060;-67
2022/03/31 09:41:29;;;;;;;12.75;3.60;;;15.50;54.50;;;;;;6005959;29;20060;-67
2022/03/31 09:44:31;;;;;;;7.82;3.47;;;15.50;55.10;;;;;;6011178;29;24580;-68
2022/03/31 09:47:43;;;;;;;13.82;3.95;;;15.40;55.40;;;;;;6006454;29;20073;-67
2022/03/31 09:50:44;;;;;;;13.85;4.32;;;15.30;55.90;;;;;;6004593;29;20125;-68
2022/03/31 09:53:50;;;;;;;11.93;3.58;;;15.30;56.20;;;;;;5988652;29;20701;-67
2022/03/31 09:56:52;;;;;;;9.13;3.25;;;15.20;56.60;;;;;;6002993;29;20086;-67
2022/03/31 09:59:54;;;;;;;10.48;3.38;;;15.20;56.80;;;;;;5987851;29;20121;-67
2022/03/31 10:02:56;;;;;;;7.88;2.65;;;15.30;56.80;;;;;;6015349;29;20401;-67
2022/03/31 10:05:58;;;;;;;11.25;4.18;;;15.40;56.70;;;;;;5996478;29;20057;-66
2022/03/31 10:08:59;;;;;;;9.25;3.75;;;15.60;56.60;;;;;;6016490;29;20444;-68
2022/03/31 10:12:12;;;;;;;11.35;3.50;;;15.80;56.50;;;;;;6012691;29;20057;-66
2022/03/31 10:15:20;;;;;;;14.75;3.80;;;16.00;56.10;;;;;;5983575;29;20041;-69
2022/03/31 10:18:21;;;;;;;12.38;3.28;;;16.20;55.70;;;;;;6011769;29;20037;-66
2022/03/31 10:21:27;;;;;;;15.75;3.63;;;16.50;55.40;;;;;;6010177;29;20132;-67
2022/03/31 10:24:47;;;;;;;7.78;3.45;;;16.80;54.90;;;;;;6011895;29;20044;-68
2022/03/31 10:27:50;;;;;;;18.50;3.60;;;17.20;54.30;;;;;;5995290;29;20037;-69
2022/03/31 10:30:57;;;;;;;16.75;3.35;;;17.50;53.50;;;;;;6011308;29;20041;-69
2022/03/31 10:33:57;;;;;;;10.32;4.47;;;17.90;52.70;;;;;;5979538;29;20420;-66
2022/03/31 10:37:06;;;;;;;19.15;4.15;;;18.30;52.00;;;;;;6011580;29;20054;-68
2022/03/31 10:40:08;;;;;;;;;;;18.40;51.20;;;;;;5994779;29;20527;-69
2022/03/31 10:43:28;;;;;;;12.02;3.35;;;18.60;50.70;;;;;;5995970;29;20277;-67
2022/03/31 10:46:32;;;;;;;8.30;2.58;;;18.70;49.80;;;;;;5994379;29;20379;-69
2022/03/31 10:49:35;;;;;;;6.97;2.20;;;18.60;49.30;;;;;;6008430;29;20129;-69
2022/03/31 10:52:36;;;;;;;7.03;2.50;;;18.50;48.70;;;;;;5993425;29;20045;-67
2022/03/31 10:55:43;;;;;;;9.82;2.78;;;18.30;48.50;;;;;;5982509;29;20078;-67
2022/03/31 10:58:46;;;;;;;8.73;3.05;;;18.10;48.10;;;;;;5976910;29;20045;-68
2022/03/31 11:01:50;;;;;;;11.43;3.30;;;17.90;47.70;;;;;;5993433;29;20033;-69
2022/03/31 11:04:57;;;;;;;11.80;3.25;;;17.70;47.50;;;;;;5980261;29;20444;-68
2022/03/31 11:08:08;;;;;;;11.02;3.10;;;17.40;47.40;;;;;;5993661;29;20049;-69
2022/03/31 11:11:22;;;;;;;16.95;3.28;;;17.20;47.90;;;;;;5999566;29;20140;-70
2022/03/31 11:14:24;;;;;;;9.93;3.20;;;17.00;48.30;;;;;;6006366;29;20034;-70
2022/03/31 11:17:25;;;;;;;13.73;3.10;;;16.80;49.00;;;;;;5992649;29;20048;-70
2022/03/31 11:20:27;;;;;;;11.73;3.42;;;16.50;49.70;;;;;;5993491;29;20037;-71
2022/03/31 11:23:30;;;;;;;10.55;3.13;;;16.30;50.60;;;;;;5994099;29;20038;-70
2022/03/31 11:26:34;;;;;;;11.57;3.47;;;16.00;51.40;;;;;;6002418;29;20476;-70
2022/03/31 11:29:35;;;;;;;7.63;3.28;;;15.80;52.00;;;;;;5997289;29;20042;-70
2022/03/31 11:32:37;;;;;;;12.77;3.03;;;15.60;52.80;;;;;;5995585;29;20080;-70
2022/03/31 11:35:38;;;;;;;7.88;3.17;;;15.60;53.10;;;;;;5989851;29;20072;-70
2022/03/31 11:38:40;;;;;;;16.77;2.75;;;15.80;53.00;;;;;;5981440;29;20044;-69
2022/03/31 11:41:42;;;;;;;7.30;2.40;;;16.00;52.80;;;;;;5999149;29;20038;-69
2022/03/31 11:44:43;;;;;;;17.30;3.53;;;16.10;52.50;;;;;;6036230;29;20050;-70
2022/03/31 11:47:55;;;;;;;5.20;2.35;;;16.30;52.20;;;;;;5992106;29;20084;-70
2022/03/31 11:50:59;;;;;;;16.13;3.38;;;16.50;51.80;;;;;;6003553;29;20484;-70
2022/03/31 11:54:08;;;;;;;14.48;2.50;;;16.80;51.30;;;;;;6003355;29;20037;-69
2022/03/31 11:57:12;;;;;;;15.20;2.95;;;17.20;50.70;;;;;;6016207;29;20129;-70
2022/03/31 12:00:14;;;;;;;7.90;3.55;;;17.60;50.10;;;;;;6003378;29;20030;-69
2022/03/31 12:03:38;;;;;;;6.57;2.88;;;18.10;49.40;;;;;;6016413;29;20049;-70
2022/03/31 12:06:39;;;;;;;7.82;2.67;;;18.30;48.80;;;;;;6000514;29;20037;-70
2022/03/31 12:09:42;;;;;;;5.13;2.47;;;18.70;48.60;;;;;;6001040;29;20046;-70
2022/03/31 12:12:48;;;;;;;9.82;3.10;;;19.10;48.00;;;;;;6002389;29;20080;-69
2022/03/31 12:15:49;;;;;;;11.63;3.03;;;19.30;47.60;;;;;;6012270;29;20398;-69
2022/03/31 12:18:57;;;;;;;10.63;2.55;;;19.60;47.40;;;;;;6003326;29;20042;-69
2022/03/31 12:21:58;;;;;;;10.45;3.47;;;20.20;46.80;;;;;;6002045;29;20038;-70
2022/03/31 12:24:59;;;;;;;8.60;2.67;;;20.70;45.80;;;;;;6000107;29;20033;-70
2022/03/31 12:28:10;;;;;;;10.52;2.40;;;21.00;45.20;;;;;;6018763;29;20427;-71
2022/03/31 12:31:29;;;;;;;11.88;3.63;;;21.70;44.20;;;;;;6002539;29;20042;-71
2022/03/31 12:34:31;;;;;;;11.90;2.50;;;22.50;42.60;;;;;;6001996;29;20042;-73
2022/03/31 12:37:33;;;;;;;11.13;3.50;;;22.80;40.80;;;;;;6001488;29;20056;-73
2022/03/31 12:40:34;;;;;;;10.65;3.25;;;22.40;40.60;;;;;;5999179;29;20042;-71
2022/03/31 12:43:35;;;;;;;4.75;2.03;;;21.70;40.70;;;;;;6000321;29;20527;-72
2022/03/31 12:46:39;;;;;;;11.77;3.85;;;20.90;41.20;;;;;;6000160;29;20046;-71
2022/03/31 12:49:41;;;;;;;8.63;2.33;;;20.20;42.00;;;;;;6001700;29;20417;-71
2022/03/31 12:52:52;;;;;;;5.25;2.33;;;19.60;42.90;;;;;;6000903;29;20353;-72
2022/03/31 12:55:53;;;;;;;12.52;2.78;;;19.00;43.90;;;;;;6013598;29;20053;-70
2022/03/31 12:58:58;;;;;;;6.57;2.13;;;18.60;44.60;;;;;;6004162;29;20045;-71
2022/03/31 13:02:06;;;;;;;4.35;2.08;;;18.20;45.50;;;;;;6000980;29;20041;-71
2022/03/31 13:05:07;;;;;;;12.00;2.67;;;17.80;46.80;;;;;;6015320;29;20044;-70
2022/03/31 13:08:09;;;;;;;9.52;2.33;;;17.30;48.00;;;;;;6019677;29;20034;-71
2022/03/31 13:11:10;;;;;;;8.10;2.67;;;16.80;49.50;;;;;;6001312;29;20142;-71
2022/03/31 13:14:12;;;;;;;6.45;2.42;;;16.30;50.90;;;;;;6002527;29;20396;-71
2022/03/31 13:17:15;;;;;;;7.50;2.40;;;15.90;52.00;;;;;;6016905;29;20042;-71
2022/03/31 13:20:17;;;;;;;6.18;2.38;;;15.50;53.20;;;;;;6014069;29;20121;-71
2022/03/31 13:23:18;;;;;;;6.25;2.35;;;15.20;54.00;;;;;;6021030;29;20052;-71
2022/03/31 13:26:19;;;;;;;6.70;2.30;;;14.90;54.70;;;;;;6017357;29;20475;-73
2022/03/31 13:29:20;;;;;;;4.47;2.45;;;14.80;55.30;;;;;;6018760;29;20042;-73
2022/03/31 13:32:22;;;;;;;6.72;2.63;;;14.60;55.70;;;;;;6013913;29;20347;-73
2022/03/31 13:35:24;;;;;;;6.22;2.45;;;14.50;56.10;;;;;;6022304;29;20383;-72
2022/03/31 13:38:26;;;;;;;7.28;4.07;;;14.50;56.20;;;;;;5983099;29;20042;-71
2022/03/31 13:41:27;;;;;;;8.35;2.20;;;14.50;56.20;;;;;;5997608;29;20169;-72
2022/03/31 13:44:29;;;;;;;4.38;1.92;;;14.50;56.20;;;;;;6015839;29;20073;-71
2022/03/31 13:47:30;;;;;;;3.67;1.40;;;14.60;56.10;;;;;;6015822;29;20072;-71
2022/03/31 13:50:30;;;;;;;2.67;1.42;;;14.60;55.90;;;;;;5998909;29;20467;-71
2022/03/31 13:53:45;;;;;;;4.20;1.27;;;14.70;55.90;;;;;;6013426;29;20132;-71
2022/03/31 13:56:48;;;;;;;4.78;1.38;;;14.70;55.50;;;;;;5999139;29;20049;-72
2022/03/31 14:03:13;;;;;;;2.92;1.00;;;14.60;56.10;;;;;;6013056;29;20420;-71
2022/03/31 14:06:16;;;;;;;3.05;0.80;;;14.60;56.30;;;;;;6020120;29;20128;-71
2022/03/31 14:09:23;;;;;;;2.35;0.88;;;14.50;56.30;;;;;;6014776;29;20088;-71
2022/03/31 14:12:23;;;;;;;2.85;0.90;;;14.30;56.60;;;;;;5999853;29;20042;-71
2022/03/31 14:15:24;;;;;;;3.17;0.80;;;14.10;56.80;;;;;;6013044;29;20049;-71
2022/03/31 14:18:25;;;;;;;0.75;0.63;;;14.00;57.20;;;;;;6015450;29;20479;-73
2022/03/31 14:21:26;;;;;;;3.20;0.80;;;13.80;57.60;;;;;;6015778;29;20124;-73
2022/03/31 14:24:28;;;;;;;1.30;0.70;;;13.70;57.90;;;;;;6011810;29;20054;-73
2022/03/31 14:27:29;;;;;;;1.00;0.70;;;13.60;58.10;;;;;;6015297;29;20543;-72
2022/03/31 14:30:30;;;;;;;3.13;1.38;;;13.50;58.70;;;;;;5995386;29;20120;-73
2022/03/31 14:33:31;;;;;;;4.80;1.15;;;13.50;59.10;;;;;;6010931;29;20056;-71
2022/03/31 14:36:33;;;;;;;6.55;1.80;;;13.50;59.30;;;;;;5997321;29;20071;-72
2022/03/31 14:39:34;;;;;;;5.78;1.70;;;13.50;59.80;;;;;;5990120;29;20121;-72
2022/03/31 14:42:35;;;;;;;4.38;1.80;;;13.40;60.10;;;;;;5998594;29;20053;-71
2022/03/31 14:45:36;;;;;;;5.13;1.50;;;13.30;61.10;;;;;;6001713;29;20086;-72
2022/03/31 14:48:38;;;;;;;2.72;1.25;;;13.30;61.30;;;;;;6006638;29;20038;-71
2022/03/31 14:51:40;;;;;;;5.90;1.58;;;13.30;61.70;;;;;;6023542;29;20038;-72
2022/03/31 14:54:41;;;;;;;2.78;0.80;;;13.20;61.50;;;;;;6018531;29;20037;-71
2022/03/31 14:57:42;;;;;;;0.70;0.57;;;13.20;61.80;;;;;;6013629;29;20037;-72
2022/03/31 15:00:43;;;;;;;0.40;0.40;;;13.20;61.90;;;;;;5982256;29;20045;-72
2022/03/31 15:03:47;;;;;;;1.20;0.60;;;13.10;61.60;;;;;;6000619;29;20048;-72
2022/03/31 15:06:48;;;;;;;1.15;0.70;;;13.10;61.00;;;;;;6000775;29;20065;-73
2022/03/31 15:16:27;;;;;;;2.05;1.00;;;13.10;59.90;;;;;;6000995;29;20047;-71
2022/03/31 15:19:30;;;;;;;2.13;1.23;;;13.10;59.90;;;;;;6021408;29;20049;-71
2022/03/31 15:22:30;;;;;;;3.30;1.35;;;13.00;59.90;;;;;;6025357;29;20061;-72
2022/03/31 15:25:31;;;;;;;2.00;1.20;;;13.10;60.20;;;;;;6000049;29;20077;-72
2022/03/31 15:28:32;;;;;;;1.25;1.02;;;13.00;60.20;;;;;;6004319;29;20046;-72
2022/03/31 15:31:33;;;;;;;1.88;1.40;;;13.10;60.40;;;;;;6003873;29;20042;-72
2022/03/31 15:34:34;;;;;;;6.07;1.88;;;13.10;60.50;;;;;;6014077;29;20440;-73
2022/03/31 15:37:35;;;;;;;2.17;1.15;;;13.10;60.70;;;;;;6018429;29;20090;-72
2022/03/31 15:40:36;;;;;;;1.80;0.88;;;13.10;60.70;;;;;;5997796;29;20046;-72
2022/03/31 15:43:37;;;;;;;3.40;1.13;;;13.00;60.80;;;;;;6001987;29;20117;-72
2022/03/31 15:46:38;;;;;;;1.90;0.98;;;13.10;61.10;;;;;;6018206;29;20428;-73
2022/03/31 15:49:39;;;;;;;3.88;1.70;;;13.10;61.70;;;;;;6015424;29;20034;-73
2022/03/31 15:52:40;;;;;;;2.30;1.48;;;13.10;62.10;;;;;;6000231;29;20132;-73
2022/03/31 15:55:42;;;;;;;2.55;1.42;;;13.00;62.30;;;;;;6000481;29;20057;-72
2022/03/31 15:58:43;;;;;;;2.92;1.70;;;13.00;62.90;;;;;;6000245;29;20086;-72